sensor_id;sensor_type;location;lat;lon;timestamp;P1;durP1;ratioP1;P2;durP2;ratioP2
20383;SDS011;46458;50.966;7.002;2022-08-19T00:01:48;14.75;;;13.43;;
20383;SDS011;46458;50.966;7.002;2022-08-19T00:04:20;15.48;;;13.98;;
20383;SDS011;46458;50.966;7.002;2022-08-19T00:06:52;14.90;;;13.52;;
20383;SDS011;46458;50.966;7.002;2022-08-19T00:09:24;14.63;;;13.23;;
20383;SDS011;46458;50.966;7.002;2022-08-19T00:11:54;14.63;;;13.23;;
20383;SDS011;46458;50.966;7.002;2022-08-19T00:14:24;16.65;;;15.05;;
20383;SDS011;46458;50.966;7.002;2022-08-19T00:16:57;15.85;;;14.35;;
20383;SDS011;46458;50.966;7.002;2022-08-19T00:19:26;16.63;;;15.02;;
20383;SDS011;46458;50.966;7.002;2022-08-19T00:21:55;15.90;;;14.38;;
20383;SDS011;46458;50.966;7.002;2022-08-19T00:24:27;16.50;;;14.70;;
20383;SDS011;46458;50.966;7.002;2022-08-19T00:26:56;17.50;;;15.80;;
20383;SDS011;46458;50.966;7.002;2022-08-19T00:29:27;15.95;;;14.27;;
20383;SDS011;46458;50.966;7.002;2022-08-19T00:31:56;16.17;;;14.57;;
20383;SDS011;46458;50.966;7.002;2022-08-19T00:34:26;16.35;;;14.60;;
20383;SDS011;46458;50.966;7.002;2022-08-19T00:36:56;16.48;;;14.98;;
20383;SDS011;46458;50.966;7.002;2022-08-19T00:39:28;16.63;;;15.05;;
20383;SDS011;46458;50.966;7.002;2022-08-19T00:41:57;15.38;;;14.07;;
20383;SDS011;46458;50.966;7.002;2022-08-19T00:44:27;17.08;;;15.45;;
20383;SDS011;46458;50.966;7.002;2022-08-19T00:46:58;15.70;;;14.25;;
20383;SDS011;46458;50.966;7.002;2022-08-19T00:49:31;16.13;;;14.73;;
20383;SDS011;46458;50.966;7.002;2022-08-19T00:52:05;16.30;;;13.48;;
20383;SDS011;46458;50.966;7.002;2022-08-19T00:54:40;14.45;;;13.15;;
20383;SDS011;46458;50.966;7.002;2022-08-19T00:57:15;15.57;;;13.98;;
20383;SDS011;46458;50.966;7.002;2022-08-19T00:59:51;14.95;;;13.55;;
20383;SDS011;46458;50.966;7.002;2022-08-19T01:02:22;21.17;;;14.00;;
20383;SDS011;46458;50.966;7.002;2022-08-19T01:04:51;17.58;;;12.75;;
20383;SDS011;46458;50.966;7.002;2022-08-19T01:07:21;15.20;;;13.57;;
20383;SDS011;46458;50.966;7.002;2022-08-19T01:09:53;15.25;;;12.75;;
20383;SDS011;46458;50.966;7.002;2022-08-19T01:12:22;12.25;;;11.15;;
20383;SDS011;46458;50.966;7.002;2022-08-19T01:14:52;14.40;;;13.00;;
20383;SDS011;46458;50.966;7.002;2022-08-19T01:17:21;12.57;;;11.27;;
20383;SDS011;46458;50.966;7.002;2022-08-19T01:19:50;13.73;;;12.43;;
20383;SDS011;46458;50.966;7.002;2022-08-19T01:22:27;13.52;;;12.00;;
20383;SDS011;46458;50.966;7.002;2022-08-19T01:24:58;13.65;;;11.93;;
20383;SDS011;46458;50.966;7.002;2022-08-19T01:27:27;12.20;;;11.00;;
20383;SDS011;46458;50.966;7.002;2022-08-19T01:30:08;12.85;;;11.65;;
20383;SDS011;46458;50.966;7.002;2022-08-19T01:32:39;12.30;;;11.10;;
20383;SDS011;46458;50.966;7.002;2022-08-19T01:35:09;13.20;;;11.90;;
20383;SDS011;46458;50.966;7.002;2022-08-19T01:37:46;13.10;;;11.32;;
20383;SDS011;46458;50.966;7.002;2022-08-19T01:40:20;11.90;;;10.80;;
20383;SDS011;46458;50.966;7.002;2022-08-19T01:42:54;13.75;;;12.38;;
20383;SDS011;46458;50.966;7.002;2022-08-19T01:45:25;13.35;;;11.75;;
20383;SDS011;46458;50.966;7.002;2022-08-19T01:47:55;14.77;;;12.43;;
20383;SDS011;46458;50.966;7.002;2022-08-19T01:50:24;13.75;;;12.35;;
20383;SDS011;46458;50.966;7.002;2022-08-19T01:53:01;14.25;;;12.80;;
20383;SDS011;46458;50.966;7.002;2022-08-19T01:55:31;13.55;;;12.25;;
20383;SDS011;46458;50.966;7.002;2022-08-19T01:58:02;13.88;;;12.48;;
20383;SDS011;46458;50.966;7.002;2022-08-19T02:00:33;14.63;;;12.32;;
20383;SDS011;46458;50.966;7.002;2022-08-19T02:03:02;13.45;;;12.25;;
20383;SDS011;46458;50.966;7.002;2022-08-19T02:05:31;16.08;;;14.48;;
20383;SDS011;46458;50.966;7.002;2022-08-19T02:08:03;15.15;;;13.73;;
20383;SDS011;46458;50.966;7.002;2022-08-19T02:10:32;15.75;;;14.35;;
20383;SDS011;46458;50.966;7.002;2022-08-19T02:13:01;15.18;;;13.88;;
20383;SDS011;46458;50.966;7.002;2022-08-19T02:15:30;18.02;;;16.25;;
20383;SDS011;46458;50.966;7.002;2022-08-19T02:17:59;17.38;;;15.68;;
20383;SDS011;46458;50.966;7.002;2022-08-19T02:20:28;17.98;;;16.30;;
20383;SDS011;46458;50.966;7.002;2022-08-19T02:22:57;17.77;;;16.17;;
20383;SDS011;46458;50.966;7.002;2022-08-19T02:25:29;18.42;;;16.73;;
20383;SDS011;46458;50.966;7.002;2022-08-19T02:27:58;18.60;;;16.83;;
20383;SDS011;46458;50.966;7.002;2022-08-19T02:30:27;19.25;;;17.35;;
20383;SDS011;46458;50.966;7.002;2022-08-19T02:32:56;19.73;;;17.73;;
20383;SDS011;46458;50.966;7.002;2022-08-19T02:35:25;20.77;;;18.75;;
20383;SDS011;46458;50.966;7.002;2022-08-19T02:37:54;19.45;;;17.75;;
20383;SDS011;46458;50.966;7.002;2022-08-19T02:40:38;18.95;;;17.25;;
20383;SDS011;46458;50.966;7.002;2022-08-19T02:43:08;20.27;;;18.35;;
20383;SDS011;46458;50.966;7.002;2022-08-19T02:45:38;20.52;;;18.52;;
20383;SDS011;46458;50.966;7.002;2022-08-19T02:48:10;20.85;;;18.75;;
20383;SDS011;46458;50.966;7.002;2022-08-19T02:50:40;20.30;;;18.48;;
20383;SDS011;46458;50.966;7.002;2022-08-19T02:53:09;20.08;;;18.08;;
20383;SDS011;46458;50.966;7.002;2022-08-19T02:55:44;21.25;;;19.23;;
20383;SDS011;46458;50.966;7.002;2022-08-19T02:58:14;22.05;;;19.90;;
20383;SDS011;46458;50.966;7.002;2022-08-19T03:00:45;20.98;;;19.08;;
20383;SDS011;46458;50.966;7.002;2022-08-19T03:03:15;21.45;;;19.52;;
20383;SDS011;46458;50.966;7.002;2022-08-19T03:05:45;22.08;;;19.98;;
20383;SDS011;46458;50.966;7.002;2022-08-19T03:08:15;21.73;;;19.58;;
20383;SDS011;46458;50.966;7.002;2022-08-19T03:10:47;22.00;;;19.83;;
20383;SDS011;46458;50.966;7.002;2022-08-19T03:13:25;20.05;;;18.13;;
20383;SDS011;46458;50.966;7.002;2022-08-19T03:16:04;19.70;;;17.90;;
20383;SDS011;46458;50.966;7.002;2022-08-19T03:18:33;20.40;;;18.45;;
20383;SDS011;46458;50.966;7.002;2022-08-19T03:21:02;20.70;;;18.60;;
20383;SDS011;46458;50.966;7.002;2022-08-19T03:23:32;21.00;;;18.95;;
20383;SDS011;46458;50.966;7.002;2022-08-19T03:26:05;21.13;;;19.13;;
20383;SDS011;46458;50.966;7.002;2022-08-19T03:28:34;20.23;;;18.42;;
20383;SDS011;46458;50.966;7.002;2022-08-19T03:31:04;21.65;;;19.58;;
20383;SDS011;46458;50.966;7.002;2022-08-19T03:33:34;20.60;;;18.48;;
20383;SDS011;46458;50.966;7.002;2022-08-19T03:36:06;21.13;;;19.13;;
20383;SDS011;46458;50.966;7.002;2022-08-19T03:38:38;19.85;;;17.85;;
20383;SDS011;46458;50.966;7.002;2022-08-19T03:41:15;21.10;;;18.95;;
20383;SDS011;46458;50.966;7.002;2022-08-19T03:43:46;20.50;;;18.40;;
20383;SDS011;46458;50.966;7.002;2022-08-19T03:46:16;21.05;;;18.92;;
20383;SDS011;46458;50.966;7.002;2022-08-19T03:48:48;19.05;;;17.15;;
20383;SDS011;46458;50.966;7.002;2022-08-19T03:51:20;19.90;;;17.90;;
20383;SDS011;46458;50.966;7.002;2022-08-19T03:53:52;21.52;;;19.35;;
20383;SDS011;46458;50.966;7.002;2022-08-19T03:56:28;21.63;;;19.50;;
20383;SDS011;46458;50.966;7.002;2022-08-19T03:58:57;22.02;;;19.70;;
20383;SDS011;46458;50.966;7.002;2022-08-19T04:01:28;22.35;;;19.70;;
20383;SDS011;46458;50.966;7.002;2022-08-19T04:03:58;22.10;;;19.90;;
20383;SDS011;46458;50.966;7.002;2022-08-19T04:06:28;21.20;;;18.95;;
20383;SDS011;46458;50.966;7.002;2022-08-19T04:08:59;24.63;;;22.20;;
20383;SDS011;46458;50.966;7.002;2022-08-19T04:11:34;25.30;;;20.63;;
20383;SDS011;46458;50.966;7.002;2022-08-19T04:14:06;22.20;;;20.10;;
20383;SDS011;46458;50.966;7.002;2022-08-19T04:16:36;27.13;;;24.23;;
20383;SDS011;46458;50.966;7.002;2022-08-19T04:19:06;29.00;;;26.10;;
20383;SDS011;46458;50.966;7.002;2022-08-19T04:21:35;27.20;;;24.30;;
20383;SDS011;46458;50.966;7.002;2022-08-19T04:24:06;29.33;;;25.88;;
20383;SDS011;46458;50.966;7.002;2022-08-19T04:26:42;30.00;;;26.90;;
20383;SDS011;46458;50.966;7.002;2022-08-19T04:29:14;28.40;;;25.48;;
20383;SDS011;46458;50.966;7.002;2022-08-19T04:31:50;30.20;;;26.10;;
20383;SDS011;46458;50.966;7.002;2022-08-19T04:34:21;31.10;;;26.85;;
20383;SDS011;46458;50.966;7.002;2022-08-19T04:36:52;32.05;;;28.65;;
20383;SDS011;46458;50.966;7.002;2022-08-19T04:39:23;35.55;;;29.88;;
20383;SDS011;46458;50.966;7.002;2022-08-19T04:42:17;35.45;;;30.52;;
20383;SDS011;46458;50.966;7.002;2022-08-19T04:44:59;37.00;;;31.15;;
20383;SDS011;46458;50.966;7.002;2022-08-19T04:47:28;33.58;;;29.73;;
20383;SDS011;46458;50.966;7.002;2022-08-19T04:49:58;33.20;;;29.67;;
20383;SDS011;46458;50.966;7.002;2022-08-19T04:52:30;34.13;;;30.27;;
20383;SDS011;46458;50.966;7.002;2022-08-19T04:54:59;34.42;;;29.92;;
20383;SDS011;46458;50.966;7.002;2022-08-19T04:57:31;36.03;;;31.35;;
20383;SDS011;46458;50.966;7.002;2022-08-19T05:00:00;36.95;;;30.85;;
20383;SDS011;46458;50.966;7.002;2022-08-19T05:02:31;35.65;;;31.90;;
20383;SDS011;46458;50.966;7.002;2022-08-19T05:05:00;36.42;;;31.38;;
20383;SDS011;46458;50.966;7.002;2022-08-19T05:07:29;33.13;;;29.60;;
20383;SDS011;46458;50.966;7.002;2022-08-19T05:10:02;36.47;;;31.27;;
20383;SDS011;46458;50.966;7.002;2022-08-19T05:12:35;37.88;;;31.75;;
20383;SDS011;46458;50.966;7.002;2022-08-19T05:15:05;36.10;;;31.23;;
20383;SDS011;46458;50.966;7.002;2022-08-19T05:17:36;34.65;;;30.77;;
20383;SDS011;46458;50.966;7.002;2022-08-19T05:20:25;36.10;;;32.17;;
20383;SDS011;46458;50.966;7.002;2022-08-19T05:23:06;35.97;;;32.08;;
20383;SDS011;46458;50.966;7.002;2022-08-19T05:25:38;37.00;;;32.20;;
20383;SDS011;46458;50.966;7.002;2022-08-19T05:28:11;35.72;;;31.92;;
20383;SDS011;46458;50.966;7.002;2022-08-19T05:30:40;36.97;;;32.08;;
20383;SDS011;46458;50.966;7.002;2022-08-19T05:33:10;35.13;;;31.33;;
20383;SDS011;46458;50.966;7.002;2022-08-19T05:35:39;33.40;;;29.92;;
20383;SDS011;46458;50.966;7.002;2022-08-19T05:38:09;38.47;;;33.50;;
20383;SDS011;46458;50.966;7.002;2022-08-19T05:40:39;43.92;;;35.58;;
20383;SDS011;46458;50.966;7.002;2022-08-19T05:43:13;40.75;;;35.35;;
20383;SDS011;46458;50.966;7.002;2022-08-19T05:45:43;40.00;;;35.80;;
20383;SDS011;46458;50.966;7.002;2022-08-19T05:48:12;43.13;;;37.13;;
20383;SDS011;46458;50.966;7.002;2022-08-19T05:50:46;44.33;;;37.35;;
20383;SDS011;46458;50.966;7.002;2022-08-19T05:53:15;45.67;;;39.53;;
20383;SDS011;46458;50.966;7.002;2022-08-19T05:55:44;48.28;;;41.15;;
20383;SDS011;46458;50.966;7.002;2022-08-19T05:58:16;47.10;;;40.15;;
20383;SDS011;46458;50.966;7.002;2022-08-19T06:00:45;45.33;;;40.38;;
20383;SDS011;46458;50.966;7.002;2022-08-19T06:03:14;42.38;;;37.78;;
20383;SDS011;46458;50.966;7.002;2022-08-19T06:05:43;43.17;;;38.38;;
20383;SDS011;46458;50.966;7.002;2022-08-19T06:08:12;45.13;;;39.25;;
20383;SDS011;46458;50.966;7.002;2022-08-19T06:10:43;42.42;;;37.28;;
20383;SDS011;46458;50.966;7.002;2022-08-19T06:13:17;39.38;;;35.08;;
20383;SDS011;46458;50.966;7.002;2022-08-19T06:15:46;41.05;;;36.72;;
20383;SDS011;46458;50.966;7.002;2022-08-19T06:18:15;42.10;;;35.58;;
20383;SDS011;46458;50.966;7.002;2022-08-19T06:20:44;40.47;;;35.47;;
20383;SDS011;46458;50.966;7.002;2022-08-19T06:23:14;40.95;;;36.25;;
20383;SDS011;46458;50.966;7.002;2022-08-19T06:25:44;37.80;;;33.13;;
20383;SDS011;46458;50.966;7.002;2022-08-19T06:28:12;41.22;;;34.78;;
20383;SDS011;46458;50.966;7.002;2022-08-19T06:30:44;38.20;;;34.15;;
20383;SDS011;46458;50.966;7.002;2022-08-19T06:33:13;38.25;;;33.30;;
20383;SDS011;46458;50.966;7.002;2022-08-19T06:35:42;41.03;;;34.75;;
20383;SDS011;46458;50.966;7.002;2022-08-19T06:38:11;38.33;;;34.25;;
20383;SDS011;46458;50.966;7.002;2022-08-19T06:40:40;37.25;;;32.72;;
20383;SDS011;46458;50.966;7.002;2022-08-19T06:43:12;37.08;;;33.08;;
20383;SDS011;46458;50.966;7.002;2022-08-19T06:45:44;36.53;;;32.63;;
20383;SDS011;46458;50.966;7.002;2022-08-19T06:48:16;42.17;;;33.67;;
20383;SDS011;46458;50.966;7.002;2022-08-19T06:50:45;36.38;;;32.15;;
20383;SDS011;46458;50.966;7.002;2022-08-19T06:53:13;36.83;;;32.67;;
20383;SDS011;46458;50.966;7.002;2022-08-19T06:55:47;39.08;;;32.50;;
20383;SDS011;46458;50.966;7.002;2022-08-19T06:58:22;35.92;;;29.85;;
20383;SDS011;46458;50.966;7.002;2022-08-19T07:00:54;35.72;;;31.73;;
20383;SDS011;46458;50.966;7.002;2022-08-19T07:03:28;34.67;;;31.08;;
20383;SDS011;46458;50.966;7.002;2022-08-19T07:06:02;35.50;;;29.65;;
20383;SDS011;46458;50.966;7.002;2022-08-19T07:08:33;39.33;;;30.30;;
20383;SDS011;46458;50.966;7.002;2022-08-19T07:11:08;32.42;;;28.13;;
20383;SDS011;46458;50.966;7.002;2022-08-19T07:13:40;35.42;;;31.52;;
20383;SDS011;46458;50.966;7.002;2022-08-19T07:16:15;34.03;;;30.33;;
20383;SDS011;46458;50.966;7.002;2022-08-19T07:18:46;34.83;;;30.70;;
20383;SDS011;46458;50.966;7.002;2022-08-19T07:21:16;34.30;;;30.48;;
20383;SDS011;46458;50.966;7.002;2022-08-19T07:23:46;32.67;;;26.40;;
20383;SDS011;46458;50.966;7.002;2022-08-19T07:26:20;31.45;;;28.05;;
20383;SDS011;46458;50.966;7.002;2022-08-19T07:28:51;32.95;;;26.65;;
20383;SDS011;46458;50.966;7.002;2022-08-19T07:31:24;31.92;;;28.23;;
20383;SDS011;46458;50.966;7.002;2022-08-19T07:33:55;33.20;;;27.08;;
20383;SDS011;46458;50.966;7.002;2022-08-19T07:36:26;30.90;;;26.58;;
20383;SDS011;46458;50.966;7.002;2022-08-19T07:38:58;33.17;;;28.50;;
20383;SDS011;46458;50.966;7.002;2022-08-19T07:41:29;33.78;;;28.13;;
20383;SDS011;46458;50.966;7.002;2022-08-19T07:43:59;30.92;;;26.95;;
20383;SDS011;46458;50.966;7.002;2022-08-19T07:46:38;31.02;;;24.52;;
20383;SDS011;46458;50.966;7.002;2022-08-19T07:49:12;32.13;;;27.50;;
20383;SDS011;46458;50.966;7.002;2022-08-19T07:51:45;31.65;;;26.90;;
20383;SDS011;46458;50.966;7.002;2022-08-19T07:54:18;30.38;;;27.23;;
20383;SDS011;46458;50.966;7.002;2022-08-19T07:56:51;31.60;;;28.20;;
20383;SDS011;46458;50.966;7.002;2022-08-19T07:59:20;33.88;;;29.13;;
20383;SDS011;46458;50.966;7.002;2022-08-19T08:01:52;32.42;;;28.75;;
20383;SDS011;46458;50.966;7.002;2022-08-19T08:04:21;32.83;;;28.90;;
20383;SDS011;46458;50.966;7.002;2022-08-19T08:07:04;37.05;;;28.55;;
20383;SDS011;46458;50.966;7.002;2022-08-19T08:09:46;35.33;;;30.15;;
20383;SDS011;46458;50.966;7.002;2022-08-19T08:12:17;34.72;;;28.70;;
20383;SDS011;46458;50.966;7.002;2022-08-19T08:14:51;33.47;;;28.40;;
20383;SDS011;46458;50.966;7.002;2022-08-19T08:17:26;40.33;;;32.30;;
20383;SDS011;46458;50.966;7.002;2022-08-19T08:19:57;36.47;;;31.60;;
20383;SDS011;46458;50.966;7.002;2022-08-19T08:22:28;36.83;;;30.60;;
20383;SDS011;46458;50.966;7.002;2022-08-19T08:25:10;38.53;;;30.58;;
20383;SDS011;46458;50.966;7.002;2022-08-19T08:27:42;38.45;;;31.58;;
20383;SDS011;46458;50.966;7.002;2022-08-19T08:30:17;37.75;;;32.08;;
20383;SDS011;46458;50.966;7.002;2022-08-19T08:32:51;39.72;;;32.33;;
20383;SDS011;46458;50.966;7.002;2022-08-19T08:35:22;37.65;;;31.88;;
20383;SDS011;46458;50.966;7.002;2022-08-19T08:37:52;42.20;;;32.53;;
20383;SDS011;46458;50.966;7.002;2022-08-19T08:40:24;40.25;;;33.88;;
20383;SDS011;46458;50.966;7.002;2022-08-19T08:42:57;44.40;;;33.92;;
20383;SDS011;46458;50.966;7.002;2022-08-19T08:45:33;39.75;;;33.42;;
20383;SDS011;46458;50.966;7.002;2022-08-19T08:48:11;39.45;;;32.70;;
20383;SDS011;46458;50.966;7.002;2022-08-19T08:50:47;35.55;;;31.25;;
20383;SDS011;46458;50.966;7.002;2022-08-19T08:53:19;42.72;;;33.30;;
20383;SDS011;46458;50.966;7.002;2022-08-19T08:55:49;39.38;;;31.17;;
20383;SDS011;46458;50.966;7.002;2022-08-19T08:58:21;47.00;;;34.45;;
20383;SDS011;46458;50.966;7.002;2022-08-19T09:00:55;41.58;;;32.88;;
20383;SDS011;46458;50.966;7.002;2022-08-19T09:03:30;38.50;;;33.35;;
20383;SDS011;46458;50.966;7.002;2022-08-19T09:06:00;43.55;;;36.15;;
20383;SDS011;46458;50.966;7.002;2022-08-19T09:08:35;41.38;;;35.05;;
20383;SDS011;46458;50.966;7.002;2022-08-19T09:11:09;39.20;;;34.35;;
20383;SDS011;46458;50.966;7.002;2022-08-19T09:13:44;41.85;;;35.63;;
20383;SDS011;46458;50.966;7.002;2022-08-19T09:16:23;39.63;;;33.97;;
20383;SDS011;46458;50.966;7.002;2022-08-19T09:18:56;42.17;;;33.72;;
20383;SDS011;46458;50.966;7.002;2022-08-19T09:21:28;42.55;;;33.20;;
20383;SDS011;46458;50.966;7.002;2022-08-19T09:23:57;38.85;;;32.92;;
20383;SDS011;46458;50.966;7.002;2022-08-19T09:26:29;41.03;;;34.47;;
20383;SDS011;46458;50.966;7.002;2022-08-19T09:29:00;35.65;;;29.42;;
20383;SDS011;46458;50.966;7.002;2022-08-19T09:31:31;27.85;;;24.70;;
20383;SDS011;46458;50.966;7.002;2022-08-19T09:34:03;30.48;;;25.92;;
20383;SDS011;46458;50.966;7.002;2022-08-19T09:36:33;27.65;;;24.58;;
20383;SDS011;46458;50.966;7.002;2022-08-19T09:39:05;32.20;;;25.88;;
20383;SDS011;46458;50.966;7.002;2022-08-19T09:41:34;31.75;;;25.30;;
20383;SDS011;46458;50.966;7.002;2022-08-19T09:44:03;27.83;;;23.40;;
20383;SDS011;46458;50.966;7.002;2022-08-19T09:46:36;35.75;;;29.75;;
20383;SDS011;46458;50.966;7.002;2022-08-19T09:49:08;34.58;;;26.20;;
20383;SDS011;46458;50.966;7.002;2022-08-19T09:51:40;24.52;;;20.88;;
20383;SDS011;46458;50.966;7.002;2022-08-19T09:54:09;23.15;;;20.17;;
20383;SDS011;46458;50.966;7.002;2022-08-19T09:56:37;23.02;;;19.40;;
20383;SDS011;46458;50.966;7.002;2022-08-19T09:59:07;19.73;;;17.10;;
20383;SDS011;46458;50.966;7.002;2022-08-19T10:01:37;27.52;;;21.00;;
20383;SDS011;46458;50.966;7.002;2022-08-19T10:04:08;18.98;;;16.95;;
20383;SDS011;46458;50.966;7.002;2022-08-19T10:06:47;23.90;;;19.40;;
20383;SDS011;46458;50.966;7.002;2022-08-19T10:09:17;23.65;;;21.13;;
20383;SDS011;46458;50.966;7.002;2022-08-19T10:11:49;19.45;;;16.23;;
20383;SDS011;46458;50.966;7.002;2022-08-19T10:14:21;15.48;;;13.88;;
20383;SDS011;46458;50.966;7.002;2022-08-19T10:16:50;15.63;;;13.93;;
20383;SDS011;46458;50.966;7.002;2022-08-19T10:19:22;13.77;;;12.48;;
20383;SDS011;46458;50.966;7.002;2022-08-19T10:21:51;14.80;;;13.30;;
20383;SDS011;46458;50.966;7.002;2022-08-19T10:24:20;17.13;;;15.32;;
20383;SDS011;46458;50.966;7.002;2022-08-19T10:26:51;14.63;;;13.13;;
20383;SDS011;46458;50.966;7.002;2022-08-19T10:29:20;15.63;;;11.52;;
20383;SDS011;46458;50.966;7.002;2022-08-19T10:31:49;14.75;;;12.88;;
20383;SDS011;46458;50.966;7.002;2022-08-19T10:34:19;12.43;;;11.10;;
20383;SDS011;46458;50.966;7.002;2022-08-19T10:36:51;12.60;;;9.65;;
20383;SDS011;46458;50.966;7.002;2022-08-19T10:39:20;13.13;;;11.07;;
20383;SDS011;46458;50.966;7.002;2022-08-19T10:41:49;14.77;;;12.52;;
20383;SDS011;46458;50.966;7.002;2022-08-19T10:44:18;14.70;;;13.20;;
20383;SDS011;46458;50.966;7.002;2022-08-19T10:46:48;17.10;;;15.30;;
20383;SDS011;46458;50.966;7.002;2022-08-19T10:49:18;17.15;;;15.43;;
20383;SDS011;46458;50.966;7.002;2022-08-19T10:51:55;18.73;;;14.60;;
20383;SDS011;46458;50.966;7.002;2022-08-19T10:54:37;16.02;;;14.45;;
20383;SDS011;46458;50.966;7.002;2022-08-19T10:57:18;16.77;;;14.15;;
20383;SDS011;46458;50.966;7.002;2022-08-19T10:59:49;16.52;;;14.57;;
20383;SDS011;46458;50.966;7.002;2022-08-19T11:02:18;17.88;;;15.10;;
20383;SDS011;46458;50.966;7.002;2022-08-19T11:04:47;16.63;;;14.25;;
20383;SDS011;46458;50.966;7.002;2022-08-19T11:07:20;17.73;;;15.80;;
20383;SDS011;46458;50.966;7.002;2022-08-19T11:09:50;15.52;;;14.00;;
20383;SDS011;46458;50.966;7.002;2022-08-19T11:12:20;16.13;;;14.13;;
20383;SDS011;46458;50.966;7.002;2022-08-19T11:14:49;18.13;;;16.30;;
20383;SDS011;46458;50.966;7.002;2022-08-19T11:17:19;21.08;;;17.60;;
20383;SDS011;46458;50.966;7.002;2022-08-19T11:19:48;20.85;;;18.95;;
20383;SDS011;46458;50.966;7.002;2022-08-19T11:22:20;18.92;;;17.02;;
20383;SDS011;46458;50.966;7.002;2022-08-19T11:24:49;22.27;;;19.77;;
20383;SDS011;46458;50.966;7.002;2022-08-19T11:27:18;21.70;;;18.88;;
20383;SDS011;46458;50.966;7.002;2022-08-19T11:29:46;20.02;;;18.02;;
20383;SDS011;46458;50.966;7.002;2022-08-19T11:32:18;20.02;;;17.95;;
20383;SDS011;46458;50.966;7.002;2022-08-19T11:34:47;17.08;;;15.25;;
20383;SDS011;46458;50.966;7.002;2022-08-19T11:37:16;19.10;;;17.23;;
20383;SDS011;46458;50.966;7.002;2022-08-19T11:39:48;18.23;;;16.27;;
20383;SDS011;46458;50.966;7.002;2022-08-19T11:42:17;19.52;;;17.58;;
20383;SDS011;46458;50.966;7.002;2022-08-19T11:45:01;16.00;;;14.40;;
20383;SDS011;46458;50.966;7.002;2022-08-19T11:47:31;17.08;;;15.35;;
20383;SDS011;46458;50.966;7.002;2022-08-19T11:50:02;16.60;;;14.93;;
20383;SDS011;46458;50.966;7.002;2022-08-19T11:52:31;17.45;;;15.80;;
20383;SDS011;46458;50.966;7.002;2022-08-19T11:55:03;15.77;;;14.15;;
20383;SDS011;46458;50.966;7.002;2022-08-19T11:57:32;15.90;;;14.20;;
20383;SDS011;46458;50.966;7.002;2022-08-19T12:00:02;17.33;;;15.60;;
20383;SDS011;46458;50.966;7.002;2022-08-19T12:02:33;17.38;;;15.60;;
20383;SDS011;46458;50.966;7.002;2022-08-19T12:05:02;16.48;;;14.73;;
20383;SDS011;46458;50.966;7.002;2022-08-19T12:07:32;14.65;;;12.00;;
20383;SDS011;46458;50.966;7.002;2022-08-19T12:10:04;15.07;;;12.30;;
20383;SDS011;46458;50.966;7.002;2022-08-19T12:12:33;13.57;;;12.13;;
20383;SDS011;46458;50.966;7.002;2022-08-19T12:15:06;16.27;;;11.88;;
20383;SDS011;46458;50.966;7.002;2022-08-19T12:17:36;13.38;;;12.10;;
20383;SDS011;46458;50.966;7.002;2022-08-19T12:20:06;13.65;;;10.23;;
20383;SDS011;46458;50.966;7.002;2022-08-19T12:22:39;13.23;;;12.05;;
20383;SDS011;46458;50.966;7.002;2022-08-19T12:25:14;14.05;;;12.75;;
20383;SDS011;46458;50.966;7.002;2022-08-19T12:27:43;15.57;;;11.68;;
20383;SDS011;46458;50.966;7.002;2022-08-19T12:30:12;14.90;;;13.32;;
20383;SDS011;46458;50.966;7.002;2022-08-19T12:32:44;13.32;;;12.13;;
20383;SDS011;46458;50.966;7.002;2022-08-19T12:35:16;18.98;;;16.95;;
20383;SDS011;46458;50.966;7.002;2022-08-19T12:37:48;12.68;;;11.23;;
20383;SDS011;46458;50.966;7.002;2022-08-19T12:40:20;12.63;;;11.23;;
20383;SDS011;46458;50.966;7.002;2022-08-19T12:42:49;10.75;;;9.75;;
20383;SDS011;46458;50.966;7.002;2022-08-19T12:45:18;10.25;;;9.20;;
20383;SDS011;46458;50.966;7.002;2022-08-19T12:47:47;10.57;;;9.57;;
20383;SDS011;46458;50.966;7.002;2022-08-19T12:50:18;11.52;;;10.43;;
20383;SDS011;46458;50.966;7.002;2022-08-19T12:52:47;10.00;;;8.90;;
20383;SDS011;46458;50.966;7.002;2022-08-19T12:55:16;11.15;;;10.07;;
20383;SDS011;46458;50.966;7.002;2022-08-19T12:57:48;11.52;;;10.32;;
20383;SDS011;46458;50.966;7.002;2022-08-19T13:00:18;16.30;;;10.48;;
20383;SDS011;46458;50.966;7.002;2022-08-19T13:02:49;10.27;;;9.18;;
20383;SDS011;46458;50.966;7.002;2022-08-19T13:05:20;13.43;;;11.50;;
20383;SDS011;46458;50.966;7.002;2022-08-19T13:07:52;12.23;;;11.13;;
20383;SDS011;46458;50.966;7.002;2022-08-19T13:10:24;16.00;;;12.93;;
20383;SDS011;46458;50.966;7.002;2022-08-19T13:12:59;12.18;;;10.90;;
20383;SDS011;46458;50.966;7.002;2022-08-19T13:15:32;12.45;;;11.27;;
20383;SDS011;46458;50.966;7.002;2022-08-19T13:18:02;13.30;;;11.43;;
20383;SDS011;46458;50.966;7.002;2022-08-19T13:20:31;13.27;;;11.88;;
20383;SDS011;46458;50.966;7.002;2022-08-19T13:23:00;11.27;;;10.15;;
20383;SDS011;46458;50.966;7.002;2022-08-19T13:25:32;14.07;;;11.05;;
20383;SDS011;46458;50.966;7.002;2022-08-19T13:28:04;11.60;;;10.57;;
20383;SDS011;46458;50.966;7.002;2022-08-19T13:30:34;14.15;;;10.98;;
20383;SDS011;46458;50.966;7.002;2022-08-19T13:33:15;14.02;;;10.60;;
20383;SDS011;46458;50.966;7.002;2022-08-19T13:35:45;10.32;;;9.25;;
20383;SDS011;46458;50.966;7.002;2022-08-19T13:38:17;10.45;;;9.45;;
20383;SDS011;46458;50.966;7.002;2022-08-19T13:40:48;10.23;;;9.13;;
20383;SDS011;46458;50.966;7.002;2022-08-19T13:43:22;8.30;;;7.50;;
20383;SDS011;46458;50.966;7.002;2022-08-19T13:45:59;11.13;;;8.05;;
20383;SDS011;46458;50.966;7.002;2022-08-19T13:48:38;9.02;;;8.13;;
20383;SDS011;46458;50.966;7.002;2022-08-19T13:51:08;8.38;;;7.57;;
20383;SDS011;46458;50.966;7.002;2022-08-19T13:53:38;7.75;;;6.68;;
20383;SDS011;46458;50.966;7.002;2022-08-19T13:56:09;9.23;;;6.88;;
20383;SDS011;46458;50.966;7.002;2022-08-19T13:58:44;8.80;;;6.78;;
20383;SDS011;46458;50.966;7.002;2022-08-19T14:01:18;10.57;;;7.68;;
20383;SDS011;46458;50.966;7.002;2022-08-19T14:03:48;8.73;;;7.00;;
20383;SDS011;46458;50.966;7.002;2022-08-19T14:06:20;8.10;;;6.90;;
20383;SDS011;46458;50.966;7.002;2022-08-19T14:08:50;9.13;;;6.70;;
20383;SDS011;46458;50.966;7.002;2022-08-19T14:11:19;8.40;;;6.70;;
20383;SDS011;46458;50.966;7.002;2022-08-19T14:13:51;6.85;;;6.07;;
20383;SDS011;46458;50.966;7.002;2022-08-19T14:16:20;9.45;;;6.57;;
20383;SDS011;46458;50.966;7.002;2022-08-19T14:18:52;8.23;;;6.07;;
20383;SDS011;46458;50.966;7.002;2022-08-19T14:21:22;9.68;;;7.22;;
20383;SDS011;46458;50.966;7.002;2022-08-19T14:23:54;13.88;;;12.48;;
20383;SDS011;46458;50.966;7.002;2022-08-19T14:26:23;9.95;;;9.00;;
20383;SDS011;46458;50.966;7.002;2022-08-19T14:28:55;7.45;;;6.22;;
20383;SDS011;46458;50.966;7.002;2022-08-19T14:31:24;7.53;;;6.68;;
20383;SDS011;46458;50.966;7.002;2022-08-19T14:33:53;7.20;;;6.03;;
20383;SDS011;46458;50.966;7.002;2022-08-19T14:36:22;8.73;;;7.82;;
20383;SDS011;46458;50.966;7.002;2022-08-19T14:38:51;7.70;;;6.90;;
20383;SDS011;46458;50.966;7.002;2022-08-19T14:41:22;8.60;;;6.15;;
20383;SDS011;46458;50.966;7.002;2022-08-19T14:43:54;7.93;;;7.13;;
20383;SDS011;46458;50.966;7.002;2022-08-19T14:46:27;9.27;;;6.38;;
20383;SDS011;46458;50.966;7.002;2022-08-19T14:48:56;10.82;;;6.38;;